Time;durP1;ratioP1;P1;durP2;ratioP2;P2;SDS_P1;SDS_P2;PMS_P1;PMS_P2;Temp;Humidity;BMP_temperature;BMP_pressure;BME280_temperature;BME280_humidity;BME280_pressure;Samples;Min_cycle;Max_cycle;Signal;HPM_P1;HPM_P2
2024/03/31 00:01:09;;;;;;;11.43;2.53;;;;;;;;;;4997514;28;20040;-80
2024/03/31 00:03:38;;;;;;;17.05;3.92;;;;;;;;;;4992071;28;20030;-81
2024/03/31 00:06:06;;;;;;;11.80;3.10;;;;;;;;;;4993127;28;20030;-81
2024/03/31 00:08:32;;;;;;;13.27;2.80;;;;;;;;;;4997654;28;20034;-81
2024/03/31 00:11:03;;;;;;;10.75;2.40;;;;;;;;;;4978393;28;20045;-82
2024/03/31 00:13:31;;;;;;;13.40;2.35;;;;;;;;;;4997810;28;20069;-80
2024/03/31 00:15:58;;;;;;;11.73;2.40;;;;;;;;;;4992523;28;20030;-79
2024/03/31 00:18:24;;;;;;;14.00;2.30;;;;;;;;;;5002918;28;20049;-81
2024/03/31 00:20:55;;;;;;;11.10;1.88;;;;;;;;;;4998730;28;20045;-81
2024/03/31 00:23:22;;;;;;;10.23;2.35;;;;;;;;;;5002870;28;20048;-81
2024/03/31 00:25:59;;;;;;;10.40;2.67;;;;;;;;;;4999793;28;20034;-80
2024/03/31 00:28:26;;;;;;;10.00;2.40;;;;;;;;;;5003125;28;20064;-80
2024/03/31 00:30:54;;;;;;;9.57;2.40;;;;;;;;;;5001037;28;20041;-81
2024/03/31 00:33:20;;;;;;;11.35;2.78;;;;;;;;;;4982934;28;20076;-79
2024/03/31 00:35:57;;;;;;;13.25;2.15;;;;;;;;;;4999847;28;20133;-80
2024/03/31 00:38:24;;;;;;;11.15;3.20;;;;;;;;;;4997894;28;20037;-81
2024/03/31 00:40:51;;;;;;;11.30;2.05;;;;;;;;;;4995685;28;20025;-80
2024/03/31 00:43:22;;;;;;;10.75;2.25;;;;;;;;;;4996154;28;20041;-80
2024/03/31 00:45:49;;;;;;;12.15;2.55;;;;;;;;;;4992724;28;20045;-81
2024/03/31 00:48:17;;;;;;;12.80;2.72;;;;;;;;;;4997723;28;20056;-80
2024/03/31 00:50:44;;;;;;;13.93;2.78;;;;;;;;;;4993478;28;20037;-80
2024/03/31 00:53:12;;;;;;;13.48;2.58;;;;;;;;;;4992391;28;20587;-80
2024/03/31 00:55:39;;;;;;;12.68;2.20;;;;;;;;;;4994306;28;20030;-80
2024/03/31 00:58:08;;;;;;;12.95;3.05;;;;;;;;;;4993817;28;20595;-80
2024/03/31 01:00:36;;;;;;;13.43;2.20;;;;;;;;;;4993093;28;20563;-79
2024/03/31 01:03:04;;;;;;;10.32;1.92;;;;;;;;;;4995551;28;20207;-79
2024/03/31 01:05:32;;;;;;;10.52;2.28;;;;;;;;;;4995937;28;20026;-80
2024/03/31 01:07:59;;;;;;;11.63;2.58;;;;;;;;;;5000534;28;20037;-81
2024/03/31 01:10:27;;;;;;;11.07;2.60;;;;;;;;;;4998120;28;20053;-80
2024/03/31 01:12:58;;;;;;;10.55;2.10;;;;;;;;;;4995441;28;20565;-80
2024/03/31 01:15:26;;;;;;;14.68;2.83;;;;;;;;;;5000113;28;20042;-80
2024/03/31 01:17:54;;;;;;;14.07;2.40;;;;;;;;;;4994228;28;20045;-79
2024/03/31 01:20:21;;;;;;;13.75;3.00;;;;;;;;;;4994673;28;20118;-80
2024/03/31 01:22:48;;;;;;;13.38;2.90;;;;;;;;;;4993912;28;20044;-80
2024/03/31 01:25:14;;;;;;;13.18;2.30;;;;;;;;;;4999770;28;20633;-80
2024/03/31 01:27:41;;;;;;;15.18;2.72;;;;;;;;;;4991968;28;20046;-80
2024/03/31 01:30:08;;;;;;;12.23;2.83;;;;;;;;;;4998739;28;20025;-79
2024/03/31 01:32:37;;;;;;;13.80;2.55;;;;;;;;;;4995110;28;20041;-80
2024/03/31 01:35:03;;;;;;;18.40;2.83;;;;;;;;;;4996490;28;20037;-79
2024/03/31 01:37:29;;;;;;;14.32;3.20;;;;;;;;;;4997381;28;20030;-79
2024/03/31 01:39:58;;;;;;;21.42;3.55;;;;;;;;;;4994638;28;20138;-79
2024/03/31 01:42:26;;;;;;;18.30;3.08;;;;;;;;;;4999104;28;20033;-79
2024/03/31 01:44:54;;;;;;;18.58;3.35;;;;;;;;;;4991405;28;20073;-79
2024/03/31 01:47:20;;;;;;;19.17;2.95;;;;;;;;;;4981963;28;20041;-79
2024/03/31 01:49:48;;;;;;;16.35;3.22;;;;;;;;;;4992819;28;20041;-79
2024/03/31 01:52:17;;;;;;;21.38;3.60;;;;;;;;;;4990673;28;20045;-78
2024/03/31 01:54:45;;;;;;;16.42;3.25;;;;;;;;;;4992410;28;20029;-79
2024/03/31 01:57:13;;;;;;;23.38;3.75;;;;;;;;;;4996310;28;20014;-78
2024/03/31 01:59:39;;;;;;;25.77;4.35;;;;;;;;;;4993034;28;20041;-79
2024/03/31 02:02:05;;;;;;;21.50;3.90;;;;;;;;;;4996057;28;20042;-80
2024/03/31 02:04:33;;;;;;;24.02;4.03;;;;;;;;;;4993198;28;20055;-79
2024/03/31 02:06:59;;;;;;;21.15;4.50;;;;;;;;;;4988098;28;20030;-80
2024/03/31 02:09:26;;;;;;;27.55;4.78;;;;;;;;;;4993131;28;20092;-79
2024/03/31 02:11:52;;;;;;;24.80;4.20;;;;;;;;;;4993028;28;20049;-80
2024/03/31 02:14:20;;;;;;;;;;;;;;;;;;4996960;28;20041;-80
2024/03/31 02:16:48;;;;;;;20.75;4.55;;;;;;;;;;4991128;28;19952;-80
2024/03/31 02:19:14;;;;;;;22.75;4.18;;;;;;;;;;4988562;28;20029;-80
2024/03/31 02:21:43;;;;;;;20.05;4.07;;;;;;;;;;4987707;28;20046;-80
2024/03/31 02:24:14;;;;;;;23.27;4.53;;;;;;;;;;4991456;28;20054;-79
2024/03/31 02:26:40;;;;;;;23.38;4.82;;;;;;;;;;4990808;28;20073;-80
2024/03/31 02:29:08;;;;;;;18.13;4.07;;;;;;;;;;4994627;28;20037;-79
2024/03/31 02:31:35;;;;;;;20.45;4.22;;;;;;;;;;4987413;28;20030;-80
2024/03/31 02:34:02;;;;;;;;;;;;;;;;;;5006320;28;20077;-80
2024/03/31 02:36:34;;;;;;;22.38;4.40;;;;;;;;;;4991465;28;20459;-80
2024/03/31 02:39:04;;;;;;;24.10;4.40;;;;;;;;;;4990071;28;20029;-79
2024/03/31 02:41:32;;;;;;;22.88;4.78;;;;;;;;;;4989306;28;20728;-80
2024/03/31 02:43:58;;;;;;;21.73;4.18;;;;;;;;;;4986311;28;20029;-81
2024/03/31 02:46:24;;;;;;;22.27;4.65;;;;;;;;;;4989457;28;20037;-77
2024/03/31 02:48:52;;;;;;;22.77;4.10;;;;;;;;;;4987683;28;20410;-81
2024/03/31 02:51:18;;;;;;;22.42;4.57;;;;;;;;;;4987890;28;20032;-80
2024/03/31 02:53:44;;;;;;;22.42;4.72;;;;;;;;;;4987379;28;20030;-80
2024/03/31 02:56:10;;;;;;;;;;;;;;;;;;4992645;28;20061;-79
2024/03/31 02:58:36;;;;;;;20.55;4.90;;;;;;;;;;4988966;28;20553;-79
2024/03/31 03:01:03;;;;;;;;;;;;;;;;;;4988582;28;20018;-78
2024/03/31 03:03:29;;;;;;;21.85;4.60;;;;;;;;;;4987613;28;20004;-79
2024/03/31 03:05:57;;;;;;;23.98;4.85;;;;;;;;;;4987375;28;20045;-80
2024/03/31 03:08:25;;;;;;;23.85;4.32;;;;;;;;;;4985464;28;20044;-79
2024/03/31 03:10:52;;;;;;;22.77;4.80;;;;;;;;;;4983606;28;20045;-78
2024/03/31 03:13:19;;;;;;;26.40;5.10;;;;;;;;;;4987526;28;20104;-79
2024/03/31 03:15:46;;;;;;;;;;;;;;;;;;4988530;28;20128;-79
2024/03/31 03:18:17;;;;;;;27.55;5.65;;;;;;;;;;4993092;28;19979;-79
2024/03/31 03:20:43;;;;;;;22.67;5.60;;;;;;;;;;4985492;28;20030;-79
2024/03/31 03:23:09;;;;;;;22.50;4.80;;;;;;;;;;4989676;28;20037;-78
2024/03/31 03:25:36;;;;;;;21.83;5.00;;;;;;;;;;4985182;28;20117;-79
2024/03/31 03:28:05;;;;;;;25.33;4.70;;;;;;;;;;4989127;28;20045;-79
2024/03/31 03:30:32;;;;;;;27.02;5.25;;;;;;;;;;4988075;28;20327;-79
2024/03/31 03:32:59;;;;;;;;;;;;;;;;;;4983084;28;20053;-79
2024/03/31 03:35:27;;;;;;;26.48;4.93;;;;;;;;;;4987921;28;20008;-80
2024/03/31 03:37:54;;;;;;;31.30;5.53;;;;;;;;;;4987917;28;20034;-80
2024/03/31 03:40:20;;;;;;;24.10;4.93;;;;;;;;;;4990347;28;20030;-79
2024/03/31 03:42:50;;;;;;;25.45;5.35;;;;;;;;;;4984212;28;20480;-79
2024/03/31 03:45:16;;;;;;;22.65;5.20;;;;;;;;;;4986035;28;20038;-79
2024/03/31 03:47:44;;;;;;;23.95;5.47;;;;;;;;;;4983616;28;20033;-81
2024/03/31 03:50:11;;;;;;;21.05;5.00;;;;;;;;;;4985085;28;20046;-80
2024/03/31 03:52:37;;;;;;;24.05;5.40;;;;;;;;;;4984175;28;20069;-80
2024/03/31 03:55:03;;;;;;;21.92;4.93;;;;;;;;;;4985915;28;20103;-79
2024/03/31 03:57:31;;;;;;;23.55;5.40;;;;;;;;;;4985753;28;20065;-80
2024/03/31 03:59:57;;;;;;;19.90;5.00;;;;;;;;;;4984077;28;20038;-79
2024/03/31 04:02:23;;;;;;;22.23;5.47;;;;;;;;;;4991080;28;20083;-78
2024/03/31 04:04:52;;;;;;;22.15;5.32;;;;;;;;;;4982914;28;20037;-79
2024/03/31 04:07:21;;;;;;;25.45;5.38;;;;;;;;;;4990082;28;20044;-79
2024/03/31 04:09:47;;;;;;;21.42;5.50;;;;;;;;;;4987837;28;20042;-79
2024/03/31 04:12:13;;;;;;;21.70;5.10;;;;;;;;;;4994008;28;20041;-78
2024/03/31 04:14:42;;;;;;;24.25;5.35;;;;;;;;;;4987664;28;20132;-78
2024/03/31 04:17:09;;;;;;;26.48;5.88;;;;;;;;;;4990139;28;20547;-79
2024/03/31 04:19:36;;;;;;;27.90;5.60;;;;;;;;;;4990611;28;20090;-79
2024/03/31 04:22:03;;;;;;;23.60;5.22;;;;;;;;;;4996872;28;20033;-79
2024/03/31 04:24:30;;;;;;;25.83;5.90;;;;;;;;;;4992392;28;20030;-79
2024/03/31 04:26:58;;;;;;;23.63;4.82;;;;;;;;;;4990163;28;20577;-79
2024/03/31 04:29:27;;;;;;;21.20;5.03;;;;;;;;;;4988868;28;20591;-80
2024/03/31 04:32:02;;;;;;;23.17;5.10;;;;;;;;;;4985576;28;20041;-79
2024/03/31 04:34:35;;;;;;;26.38;5.25;;;;;;;;;;4992747;28;20673;-78
2024/03/31 04:37:01;;;;;;;24.48;5.30;;;;;;;;;;4996613;28;20088;-85
2024/03/31 04:39:27;;;;;;;22.58;4.97;;;;;;;;;;5006775;28;20030;-85
2024/03/31 04:41:55;;;;;;;23.90;5.45;;;;;;;;;;5014136;28;20049;-85
2024/03/31 04:44:23;;;;;;;25.60;5.53;;;;;;;;;;5008235;28;20040;-85
2024/03/31 04:46:53;;;;;;;22.65;5.35;;;;;;;;;;4991890;28;20034;-85
2024/03/31 04:49:22;;;;;;;23.98;5.20;;;;;;;;;;5006875;28;20036;-86
2024/03/31 04:51:49;;;;;;;23.13;5.25;;;;;;;;;;4998874;28;20030;-85
2024/03/31 04:54:17;;;;;;;22.30;4.65;;;;;;;;;;5001685;28;20048;-85
2024/03/31 04:56:43;;;;;;;21.50;4.82;;;;;;;;;;4995891;28;20030;-85
2024/03/31 04:59:09;;;;;;;20.20;4.95;;;;;;;;;;4997761;28;20040;-86
2024/03/31 05:01:37;;;;;;;23.25;4.88;;;;;;;;;;4998441;28;20030;-84
2024/03/31 05:04:03;;;;;;;22.60;4.72;;;;;;;;;;5000786;28;20133;-85
2024/03/31 05:06:33;;;;;;;23.55;5.10;;;;;;;;;;4998641;28;20031;-85
2024/03/31 05:08:59;;;;;;;23.88;5.05;;;;;;;;;;5010679;28;20050;-85
2024/03/31 05:11:27;;;;;;;21.17;4.85;;;;;;;;;;5013239;28;20867;-86
2024/03/31 05:13:55;;;;;;;21.27;5.28;;;;;;;;;;4997653;28;21093;-86
2024/03/31 05:16:22;;;;;;;24.65;5.40;;;;;;;;;;5004329;28;20125;-86
2024/03/31 05:19:00;;;;;;;24.73;5.07;;;;;;;;;;5001939;28;20026;-87
2024/03/31 05:21:28;;;;;;;20.63;5.32;;;;;;;;;;5000543;28;20604;-85
2024/03/31 05:23:54;;;;;;;19.52;4.50;;;;;;;;;;5011931;28;20292;-86
2024/03/31 05:26:21;;;;;;;21.90;5.00;;;;;;;;;;4996044;28;20065;-85
2024/03/31 05:28:48;;;;;;;22.38;4.50;;;;;;;;;;4995151;28;20061;-85
2024/03/31 05:31:14;;;;;;;19.52;4.20;;;;;;;;;;4998072;28;20077;-85
2024/03/31 05:33:42;;;;;;;18.30;4.38;;;;;;;;;;4994614;28;20042;-86
2024/03/31 05:36:09;;;;;;;24.52;4.78;;;;;;;;;;4997471;28;20775;-86
2024/03/31 05:38:38;;;;;;;21.33;5.00;;;;;;;;;;4995794;28;20021;-87
2024/03/31 05:41:05;;;;;;;24.33;4.88;;;;;;;;;;4997627;28;20065;-85
2024/03/31 05:43:31;;;;;;;;;;;;;;;;;;4997019;28;21065;-85
2024/03/31 05:46:00;;;;;;;24.23;4.85;;;;;;;;;;4993382;28;19917;-87
2024/03/31 05:48:26;;;;;;;22.33;4.63;;;;;;;;;;4993859;28;20058;-86
2024/03/31 05:50:54;;;;;;;21.65;5.43;;;;;;;;;;4992460;28;20086;-86
2024/03/31 05:53:22;;;;;;;25.27;5.32;;;;;;;;;;4975039;28;20056;-85
2024/03/31 05:55:48;;;;;;;26.63;5.22;;;;;;;;;;4988874;28;20022;-85
2024/03/31 05:58:18;;;;;;;24.08;4.47;;;;;;;;;;4998536;28;20036;-85
2024/03/31 06:00:47;;;;;;;23.67;4.78;;;;;;;;;;4993610;28;20145;-84
2024/03/31 06:03:14;;;;;;;25.13;5.28;;;;;;;;;;4994244;28;20559;-86
2024/03/31 06:05:40;;;;;;;19.00;4.28;;;;;;;;;;4994536;28;20029;-85
2024/03/31 06:08:07;;;;;;;20.63;4.90;;;;;;;;;;4993637;28;20057;-86
2024/03/31 06:10:35;;;;;;;22.77;4.93;;;;;;;;;;4997879;28;20050;-85
2024/03/31 06:13:15;;;;;;;26.45;5.30;;;;;;;;;;4998111;28;20484;-86
2024/03/31 06:15:42;;;;;;;24.17;5.35;;;;;;;;;;4991923;28;20030;-86
2024/03/31 06:18:10;;;;;;;26.17;4.95;;;;;;;;;;4996838;28;20018;-85
2024/03/31 06:20:40;;;;;;;22.45;5.38;;;;;;;;;;4972423;28;20042;-86
2024/03/31 06:23:07;;;;;;;26.02;5.35;;;;;;;;;;4994907;28;20034;-85
2024/03/31 06:25:33;;;;;;;24.30;5.30;;;;;;;;;;4997183;28;20044;-85
2024/03/31 06:28:24;;;;;;;22.08;5.22;;;;;;;;;;4993282;28;20053;-86
2024/03/31 06:30:51;;;;;;;29.30;6.32;;;;;;;;;;4997258;28;20114;-86
2024/03/31 06:33:18;;;;;;;24.83;5.43;;;;;;;;;;4996737;28;20674;-86
2024/03/31 06:35:46;;;;;;;23.60;4.75;;;;;;;;;;4994838;28;20046;-87
2024/03/31 06:38:13;;;;;;;22.88;5.10;;;;;;;;;;4993755;28;20033;-86
2024/03/31 06:40:42;;;;;;;24.80;4.70;;;;;;;;;;4991634;28;20033;-87
2024/03/31 06:43:10;;;;;;;21.67;4.88;;;;;;;;;;4997696;28;20020;-86
2024/03/31 06:45:38;;;;;;;21.40;4.65;;;;;;;;;;4991176;28;20647;-86
2024/03/31 06:48:06;;;;;;;20.40;4.45;;;;;;;;;;4998149;28;20029;-86
2024/03/31 06:50:33;;;;;;;22.48;4.63;;;;;;;;;;4995585;28;20037;-86
2024/03/31 06:53:00;;;;;;;19.35;4.57;;;;;;;;;;4993989;28;20120;-87
2024/03/31 06:55:26;;;;;;;21.58;4.63;;;;;;;;;;4995882;28;20117;-85
2024/03/31 06:57:53;;;;;;;21.98;5.18;;;;;;;;;;4991173;28;20088;-86
2024/03/31 07:00:20;;;;;;;23.05;5.03;;;;;;;;;;4996056;28;20068;-86
2024/03/31 07:02:51;;;;;;;22.50;4.72;;;;;;;;;;4988011;28;20029;-87
2024/03/31 07:05:20;;;;;;;19.77;4.97;;;;;;;;;;4994288;28;20044;-86
2024/03/31 07:07:47;;;;;;;18.98;4.63;;;;;;;;;;4992781;28;20036;-87
2024/03/31 07:10:14;;;;;;;22.40;4.57;;;;;;;;;;4994744;28;20121;-87
2024/03/31 07:12:41;;;;;;;20.52;4.93;;;;;;;;;;4976080;28;20034;-87
2024/03/31 07:15:08;;;;;;;22.25;4.95;;;;;;;;;;5008236;28;20453;-86
2024/03/31 07:17:36;;;;;;;24.33;5.28;;;;;;;;;;5005117;28;20058;-85
2024/03/31 07:20:07;;;;;;;20.70;4.22;;;;;;;;;;5002845;28;20033;-87
2024/03/31 07:22:37;;;;;;;22.00;4.70;;;;;;;;;;4997728;28;20072;-86
2024/03/31 07:25:04;;;;;;;24.45;5.22;;;;;;;;;;4995912;28;20121;-86
2024/03/31 07:27:31;;;;;;;22.30;4.75;;;;;;;;;;4996210;28;20696;-87
2024/03/31 07:29:57;;;;;;;;;;;;;;;;;;4996628;28;20164;-87
2024/03/31 07:32:44;;;;;;;22.83;5.07;;;;;;;;;;4994229;28;20352;-87
2024/03/31 07:35:13;;;;;;;28.30;5.32;;;;;;;;;;4992678;28;20125;-88
2024/03/31 07:37:45;;;;;;;23.20;5.45;;;;;;;;;;4993904;28;20042;-87
2024/03/31 07:40:12;;;;;;;23.17;4.90;;;;;;;;;;4994226;28;20079;-87
2024/03/31 07:42:39;;;;;;;;;;;;;;;;;;4993185;28;20030;-87
2024/03/31 07:45:05;;;;;;;;;;;;;;;;;;4994622;28;19914;-87
2024/03/31 07:47:31;;;;;;;24.85;5.70;;;;;;;;;;4995703;28;19913;-85
2024/03/31 07:50:04;;;;;;;21.13;4.75;;;;;;;;;;4992817;28;20108;-86
2024/03/31 07:52:38;;;;;;;24.50;5.47;;;;;;;;;;4999003;28;20103;-86
2024/03/31 07:55:06;;;;;;;24.85;5.68;;;;;;;;;;5009783;28;20041;-85
2024/03/31 07:57:33;;;;;;;21.88;5.63;;;;;;;;;;5013076;28;20038;-85
2024/03/31 07:59:59;;;;;;;;;;;;;;;;;;5001515;28;20109;-84
2024/03/31 08:02:25;;;;;;;25.92;5.43;;;;;;;;;;5001886;28;19919;-85
2024/03/31 08:04:51;;;;;;;25.35;5.05;;;;;;;;;;4994411;28;20057;-86
2024/03/31 08:07:17;;;;;;;;;;;;;;;;;;5001588;28;20030;-85
2024/03/31 08:09:45;;;;;;;20.85;4.85;;;;;;;;;;4995934;28;19913;-84
2024/03/31 08:12:13;;;;;;;21.65;5.38;;;;;;;;;;5000224;28;20018;-84
2024/03/31 08:14:43;;;;;;;25.77;5.20;;;;;;;;;;4995191;28;20026;-84
2024/03/31 08:17:10;;;;;;;22.92;5.35;;;;;;;;;;4996452;28;20038;-84
2024/03/31 08:19:37;;;;;;;22.20;5.22;;;;;;;;;;4993998;28;20037;-85
2024/03/31 08:22:06;;;;;;;19.67;4.57;;;;;;;;;;4994494;28;20022;-85
2024/03/31 08:24:33;;;;;;;20.65;4.82;;;;;;;;;;5016294;28;20046;-85
2024/03/31 08:27:01;;;;;;;21.98;5.43;;;;;;;;;;5000476;28;20543;-85
2024/03/31 08:29:28;;;;;;;24.88;5.10;;;;;;;;;;4997946;28;20646;-85
2024/03/31 08:31:55;;;;;;;21.55;4.93;;;;;;;;;;4995806;28;20038;-85
2024/03/31 08:34:23;;;;;;;20.17;4.32;;;;;;;;;;4997074;28;20040;-85
2024/03/31 08:36:49;;;;;;;21.67;4.68;;;;;;;;;;4994405;28;20056;-85
2024/03/31 08:39:15;;;;;;;;;;;;;;;;;;4996018;28;20541;-84
2024/03/31 08:41:59;;;;;;;16.02;4.45;;;;;;;;;;4993137;28;19913;-84
2024/03/31 08:44:25;;;;;;;17.35;3.53;;;;;;;;;;4996472;28;20104;-84
2024/03/31 08:46:51;;;;;;;;;;;;;;;;;;4992284;28;20033;-83
2024/03/31 08:49:19;;;;;;;18.92;4.25;;;;;;;;;;4994493;28;20019;-84
2024/03/31 08:51:48;;;;;;;21.10;4.05;;;;;;;;;;4990377;28;20073;-84
2024/03/31 08:54:16;;;;;;;20.50;4.20;;;;;;;;;;4994642;28;20037;-85
2024/03/31 08:56:44;;;;;;;18.92;3.28;;;;;;;;;;4992477;28;20160;-83
2024/03/31 08:59:15;;;;;;;17.45;3.72;;;;;;;;;;4994363;28;20127;-84
2024/03/31 09:01:42;;;;;;;16.73;2.83;;;;;;;;;;4993334;28;20044;-84
2024/03/31 09:04:09;;;;;;;17.08;3.40;;;;;;;;;;4996004;28;20026;-85
2024/03/31 09:06:37;;;;;;;14.25;3.10;;;;;;;;;;4990361;28;20104;-85
2024/03/31 09:09:05;;;;;;;17.88;3.53;;;;;;;;;;4997168;28;20029;-84
2024/03/31 09:11:32;;;;;;;15.45;3.30;;;;;;;;;;4991424;28;20133;-84
2024/03/31 09:13:59;;;;;;;19.88;3.22;;;;;;;;;;4993663;28;20038;-84
2024/03/31 09:16:25;;;;;;;;;;;;;;;;;;4995275;28;20041;-84
2024/03/31 09:18:53;;;;;;;14.40;3.10;;;;;;;;;;4991020;28;19917;-84
2024/03/31 09:21:27;;;;;;;15.10;3.42;;;;;;;;;;4998264;28;20037;-84
2024/03/31 09:23:59;;;;;;;18.15;3.38;;;;;;;;;;5002009;28;20042;-85
2024/03/31 09:26:25;;;;;;;15.77;2.90;;;;;;;;;;5012830;28;20033;-85
2024/03/31 09:28:53;;;;;;;15.48;2.88;;;;;;;;;;4992517;28;20051;-85
2024/03/31 09:31:21;;;;;;;16.45;3.40;;;;;;;;;;4975363;28;20108;-84
2024/03/31 09:33:48;;;;;;;15.63;2.90;;;;;;;;;;4987671;28;20038;-84
2024/03/31 09:36:15;;;;;;;18.23;3.10;;;;;;;;;;4992390;28;20056;-85
2024/03/31 09:38:42;;;;;;;14.38;2.85;;;;;;;;;;4991008;28;20073;-86
2024/03/31 09:41:11;;;;;;;19.13;3.50;;;;;;;;;;4992106;28;20015;-85
2024/03/31 09:43:40;;;;;;;14.65;3.22;;;;;;;;;;4993136;28;20037;-86
2024/03/31 09:46:09;;;;;;;12.93;2.95;;;;;;;;;;4990845;28;20028;-87
2024/03/31 09:48:41;;;;;;;14.27;2.90;;;;;;;;;;4986620;28;20567;-86
2024/03/31 09:51:13;;;;;;;16.98;3.03;;;;;;;;;;4994394;28;20741;-85
2024/03/31 09:53:41;;;;;;;14.35;3.00;;;;;;;;;;4992777;28;20041;-85
2024/03/31 09:56:08;;;;;;;16.38;3.13;;;;;;;;;;4992331;28;20035;-85
2024/03/31 09:58:40;;;;;;;12.15;2.75;;;;;;;;;;4990697;28;20496;-85
2024/03/31 10:01:09;;;;;;;16.55;3.08;;;;;;;;;;4993039;28;20026;-86
2024/03/31 10:03:42;;;;;;;17.55;3.20;;;;;;;;;;4972099;28;20051;-86
2024/03/31 10:06:09;;;;;;;14.93;2.55;;;;;;;;;;4986580;28;20113;-85
2024/03/31 10:08:35;;;;;;;16.73;3.20;;;;;;;;;;4985152;28;20049;-84
2024/03/31 10:11:03;;;;;;;12.18;2.50;;;;;;;;;;4992268;28;20024;-85
2024/03/31 10:13:31;;;;;;;15.27;2.67;;;;;;;;;;4991968;28;20837;-86
2024/03/31 10:16:00;;;;;;;10.70;2.40;;;;;;;;;;4972949;28;20042;-86
2024/03/31 10:18:30;;;;;;;11.32;2.42;;;;;;;;;;4995250;28;20041;-86
2024/03/31 10:20:57;;;;;;;16.10;3.13;;;;;;;;;;4991770;28;20704;-84
2024/03/31 10:23:25;;;;;;;11.10;2.28;;;;;;;;;;5005833;28;20037;-85
2024/03/31 10:25:53;;;;;;;14.35;2.88;;;;;;;;;;4999805;28;20038;-86
2024/03/31 10:28:21;;;;;;;14.02;2.65;;;;;;;;;;4976723;28;20041;-85
2024/03/31 10:30:49;;;;;;;13.35;2.70;;;;;;;;;;4993008;28;20054;-86
2024/03/31 10:33:18;;;;;;;12.43;2.75;;;;;;;;;;4995778;28;20437;-84
2024/03/31 10:35:46;;;;;;;12.32;2.42;;;;;;;;;;4991631;28;20026;-86
2024/03/31 10:38:17;;;;;;;11.30;1.90;;;;;;;;;;4980726;28;20305;-86
2024/03/31 10:40:44;;;;;;;10.05;1.83;;;;;;;;;;4992691;28;20124;-85
2024/03/31 10:43:11;;;;;;;11.27;1.88;;;;;;;;;;4996794;28;20041;-85
2024/03/31 10:45:38;;;;;;;10.23;2.35;;;;;;;;;;4986117;28;20414;-80
2024/03/31 10:48:05;;;;;;;9.82;1.70;;;;;;;;;;4986342;28;20033;-81
2024/03/31 10:50:51;;;;;;;13.18;2.08;;;;;;;;;;4985290;28;20519;-82
2024/03/31 10:53:40;;;;;;;;;;;;;;;;;;;;;
2024/03/31 10:56:09;;;;;;;11.65;1.92;;;;;;;;;;4985447;28;20044;-80
2024/03/31 10:58:50;;;;;;;11.52;2.22;;;;;;;;;;4986188;28;20033;-79
2024/03/31 11:01:18;;;;;;;12.32;2.15;;;;;;;;;;4983165;28;20575;-79
2024/03/31 11:03:47;;;;;;;10.68;2.08;;;;;;;;;;4979225;28;20037;-79
2024/03/31 11:06:21;;;;;;;10.75;1.83;;;;;;;;;;4979467;28;20171;-80
2024/03/31 11:08:48;;;;;;;9.65;1.95;;;;;;;;;;4979855;28;20036;-79
2024/03/31 11:11:16;;;;;;;7.38;1.63;;;;;;;;;;4983145;28;20088;-80
2024/03/31 11:13:45;;;;;;;15.40;1.98;;;;;;;;;;4983176;28;20042;-79
2024/03/31 11:16:11;;;;;;;9.65;2.15;;;;;;;;;;4982991;28;20026;-80
2024/03/31 11:18:37;;;;;;;13.52;1.77;;;;;;;;;;4984816;28;20034;-81
2024/03/31 11:21:15;;;;;;;9.98;2.00;;;;;;;;;;4984253;28;20552;-81
2024/03/31 11:23:42;;;;;;;10.32;1.33;;;;;;;;;;4985630;28;20792;-81
2024/03/31 11:26:09;;;;;;;9.25;1.48;;;;;;;;;;4991133;28;20023;-81
2024/03/31 11:28:36;;;;;;;10.55;1.50;;;;;;;;;;4984365;28;20045;-80
2024/03/31 11:31:03;;;;;;;8.85;1.52;;;;;;;;;;4989213;28;20030;-79
2024/03/31 11:33:31;;;;;;;9.25;1.73;;;;;;;;;;4986766;28;20112;-81
2024/03/31 11:36:00;;;;;;;8.75;1.40;;;;;;;;;;4988039;28;20034;-80
2024/03/31 11:38:27;;;;;;;9.07;1.42;;;;;;;;;;4990337;28;20057;-80
2024/03/31 11:40:54;;;;;;;9.07;1.70;;;;;;;;;;4985180;28;20037;-79
2024/03/31 11:43:20;;;;;;;8.65;1.38;;;;;;;;;;4987810;28;20040;-80
2024/03/31 11:45:47;;;;;;;11.52;1.67;;;;;;;;;;4983070;28;20061;-80
2024/03/31 11:48:15;;;;;;;10.07;1.50;;;;;;;;;;4984868;28;20420;-80
2024/03/31 11:50:42;;;;;;;10.27;1.50;;;;;;;;;;4984194;28;20041;-80
2024/03/31 11:53:10;;;;;;;9.13;1.95;;;;;;;;;;4990706;28;20022;-80
2024/03/31 11:55:40;;;;;;;10.63;2.08;;;;;;;;;;4985411;28;20038;-80
2024/03/31 11:58:08;;;;;;;9.93;1.92;;;;;;;;;;4971217;28;20172;-80
2024/03/31 12:00:34;;;;;;;12.57;1.88;;;;;;;;;;4985200;28;20026;-80
2024/03/31 12:03:06;;;;;;;11.18;1.95;;;;;;;;;;4986708;28;20480;-80
2024/03/31 12:05:35;;;;;;;12.10;2.00;;;;;;;;;;4985607;28;20025;-78
2024/03/31 12:08:02;;;;;;;12.27;2.28;;;;;;;;;;4986039;28;20037;-79
2024/03/31 12:10:28;;;;;;;15.45;2.30;;;;;;;;;;4984545;28;20030;-78
2024/03/31 12:12:55;;;;;;;11.60;1.83;;;;;;;;;;4983878;28;20649;-78
2024/03/31 12:15:22;;;;;;;10.57;1.80;;;;;;;;;;4988133;28;20041;-79
2024/03/31 12:17:58;;;;;;;11.50;2.17;;;;;;;;;;4983191;28;20026;-79
2024/03/31 12:20:25;;;;;;;13.82;1.85;;;;;;;;;;4985921;28;20519;-78
2024/03/31 12:22:54;;;;;;;13.85;2.53;;;;;;;;;;4982917;28;20045;-78
2024/03/31 12:25:20;;;;;;;13.63;2.15;;;;;;;;;;4968517;28;20141;-79
2024/03/31 12:27:48;;;;;;;14.65;4.40;;;;;;;;;;4982389;28;20099;-79
2024/03/31 12:30:15;;;;;;;16.42;4.13;;;;;;;;;;4987216;28;20070;-79
2024/03/31 12:32:41;;;;;;;;;;;;;;;;;;4983248;28;20038;-80
2024/03/31 12:35:07;;;;;;;14.02;3.00;;;;;;;;;;4983414;28;19960;-80
2024/03/31 12:37:39;;;;;;;16.13;2.55;;;;;;;;;;4985182;28;20637;-78
2024/03/31 12:40:08;;;;;;;13.98;2.95;;;;;;;;;;4987545;28;20017;-79
2024/03/31 12:42:40;;;;;;;11.65;2.30;;;;;;;;;;4986612;28;20488;-78
2024/03/31 12:45:07;;;;;;;11.05;2.33;;;;;;;;;;4987732;28;20022;-80
2024/03/31 12:47:34;;;;;;;16.75;2.75;;;;;;;;;;4983166;28;20080;-79
2024/03/31 12:50:01;;;;;;;13.48;2.55;;;;;;;;;;4983548;28;20037;-80
2024/03/31 12:52:30;;;;;;;11.43;2.28;;;;;;;;;;4986448;28;20452;-79
2024/03/31 12:55:02;;;;;;;11.07;2.20;;;;;;;;;;4980570;28;20113;-78
2024/03/31 12:57:28;;;;;;;12.93;2.30;;;;;;;;;;4983665;28;20026;-79
2024/03/31 12:59:54;;;;;;;;;;;;;;;;;;4985151;28;20048;-79
2024/03/31 13:02:20;;;;;;;15.95;3.15;;;;;;;;;;4988944;28;19913;-79
2024/03/31 13:04:47;;;;;;;12.63;2.70;;;;;;;;;;4983308;28;20140;-79
2024/03/31 13:07:14;;;;;;;13.82;3.15;;;;;;;;;;4989682;28;20036;-80
2024/03/31 13:09:40;;;;;;;10.73;2.20;;;;;;;;;;4982605;28;20036;-80
2024/03/31 13:12:08;;;;;;;;;;;;;;;;;;4988026;28;20030;-80
2024/03/31 13:14:36;;;;;;;11.40;2.42;;;;;;;;;;4984564;28;20529;-81
2024/03/31 13:17:03;;;;;;;15.30;3.30;;;;;;;;;;4982749;28;20046;-81
2024/03/31 13:19:29;;;;;;;12.55;2.50;;;;;;;;;;4988203;28;20041;-80
2024/03/31 13:21:55;;;;;;;12.13;2.20;;;;;;;;;;4984456;28;20321;-80
2024/03/31 13:24:28;;;;;;;11.43;2.15;;;;;;;;;;4987764;28;20037;-79
2024/03/31 13:26:58;;;;;;;11.50;1.50;;;;;;;;;;4982724;28;20030;-80
2024/03/31 13:29:34;;;;;;;12.80;2.00;;;;;;;;;;4983493;28;20589;-80
2024/03/31 13:32:03;;;;;;;12.45;2.08;;;;;;;;;;4987073;28;20033;-81
2024/03/31 13:34:32;;;;;;;9.93;1.67;;;;;;;;;;4986746;28;20081;-80
2024/03/31 13:36:59;;;;;;;14.38;1.90;;;;;;;;;;4982763;28;20057;-79
2024/03/31 13:39:26;;;;;;;14.00;1.95;;;;;;;;;;4983498;28;20041;-80
2024/03/31 13:41:53;;;;;;;13.63;2.63;;;;;;;;;;4982140;28;20030;-80
2024/03/31 13:44:20;;;;;;;12.27;3.25;;;;;;;;;;4982748;28;20147;-80
2024/03/31 13:46:47;;;;;;;12.88;2.22;;;;;;;;;;4983111;28;20033;-80
2024/03/31 13:49:14;;;;;;;11.88;1.92;;;;;;;;;;4985630;28;20041;-80
2024/03/31 13:51:41;;;;;;;10.60;2.17;;;;;;;;;;4994472;28;20034;-80
2024/03/31 13:54:44;;;;;;;14.07;2.05;;;;;;;;;;4982002;28;20163;-80
2024/03/31 13:57:11;;;;;;;14.27;2.47;;;;;;;;;;4974957;28;20064;-81
2024/03/31 13:59:37;;;;;;;15.35;1.92;;;;;;;;;;4984118;28;20509;-78
2024/03/31 14:02:04;;;;;;;17.40;2.65;;;;;;;;;;4989916;28;20098;-79
2024/03/31 14:04:31;;;;;;;13.25;2.22;;;;;;;;;;4991594;28;20029;-78
2024/03/31 14:06:57;;;;;;;14.05;2.15;;;;;;;;;;4987975;28;20037;-79
2024/03/31 14:09:25;;;;;;;14.90;2.13;;;;;;;;;;4988139;28;20045;-79
2024/03/31 14:11:53;;;;;;;10.05;1.92;;;;;;;;;;4967530;28;20045;-78
2024/03/31 14:14:21;;;;;;;11.23;1.77;;;;;;;;;;4984861;28;20029;-80
2024/03/31 14:16:51;;;;;;;12.77;1.88;;;;;;;;;;4983214;28;20038;-79
2024/03/31 14:19:18;;;;;;;14.02;2.25;;;;;;;;;;4988478;28;20161;-81
2024/03/31 14:21:44;;;;;;;10.57;1.90;;;;;;;;;;4983280;28;20029;-81
2024/03/31 14:24:11;;;;;;;15.00;2.08;;;;;;;;;;4984266;28;20046;-80
2024/03/31 14:26:38;;;;;;;17.83;2.30;;;;;;;;;;4977296;28;20627;-81
2024/03/31 14:29:05;;;;;;;15.98;2.28;;;;;;;;;;4980935;28;20037;-81
2024/03/31 14:31:34;;;;;;;18.55;2.63;;;;;;;;;;4990940;28;20068;-80
2024/03/31 14:34:00;;;;;;;14.60;2.38;;;;;;;;;;4986472;28;20029;-81
2024/03/31 14:36:26;;;;;;;15.55;2.15;;;;;;;;;;4984704;28;20116;-80
2024/03/31 14:38:53;;;;;;;14.10;1.95;;;;;;;;;;4981052;28;20053;-80
2024/03/31 14:41:19;;;;;;;14.60;2.50;;;;;;;;;;4983769;28;20033;-80
2024/03/31 14:43:45;;;;;;;17.67;2.70;;;;;;;;;;4983173;28;20036;-80